createdAt,value
2019-05-19T00:01:33.762Z,92.50
2019-05-19T00:05:40.682Z,91.69
2019-05-19T00:09:47.435Z,90.15
2019-05-19T00:13:54.183Z,88.00
2019-05-19T00:18:00.957Z,87.93
2019-05-19T00:22:07.911Z,87.50
2019-05-19T00:26:14.685Z,88.69
2019-05-19T00:30:21.501Z,89.95
2019-05-19T00:34:31.194Z,89.78
2019-05-19T00:38:38.217Z,89.08
2019-05-19T00:42:44.971Z,89.64
2019-05-19T00:46:52.759Z,89.58
2019-05-19T00:50:59.624Z,90.79
2019-05-19T00:55:06.361Z,90.73
2019-05-19T00:59:13.735Z,89.14
2019-05-19T01:03:20.516Z,89.62
2019-05-19T01:07:27.373Z,89.29
2019-05-19T01:11:34.119Z,90.12
2019-05-19T01:15:40.968Z,88.60
2019-05-19T01:19:56.109Z,88.19
2019-05-19T01:23:56.850Z,88.60
2019-05-19T01:28:03.678Z,87.70
2019-05-19T01:32:10.549Z,86.87
2019-05-19T01:36:17.351Z,88.30
2019-05-19T01:40:24.099Z,87.67
2019-05-19T01:44:30.911Z,86.26
2019-05-19T01:48:38.672Z,87.54
2019-05-19T01:52:45.523Z,88.50
2019-05-19T01:56:52.234Z,88.11
2019-05-19T02:00:58.997Z,88.79
2019-05-19T02:05:05.820Z,91.25
2019-05-19T02:09:12.523Z,90.77
2019-05-19T02:13:19.677Z,91.19
2019-05-19T02:17:26.416Z,90.22
2019-05-19T02:21:34.102Z,91.16
2019-05-19T02:25:40.806Z,91.64
2019-05-19T02:29:48.461Z,91.64
2019-05-19T02:33:55.341Z,92.04
2019-05-19T02:38:02.442Z,91.21
2019-05-19T02:42:14.230Z,89.31
2019-05-19T02:46:21.699Z,89.83
2019-05-19T02:50:30.455Z,89.25
2019-05-19T02:54:38.740Z,89.27
2019-05-19T02:58:47.084Z,89.49
2019-05-19T03:02:54.161Z,88.79
2019-05-19T03:07:00.822Z,88.51
2019-05-19T03:11:07.830Z,89.30
2019-05-19T03:15:14.666Z,88.20
2019-05-19T03:19:21.364Z,88.41
2019-05-19T03:23:28.524Z,87.91
2019-05-19T03:27:37.473Z,89.15
2019-05-19T03:31:50.864Z,88.37
2019-05-19T03:35:57.587Z,87.41
2019-05-19T03:40:06.212Z,87.22
2019-05-19T03:44:12.929Z,86.61
2019-05-19T03:48:19.730Z,86.07
2019-05-19T03:52:26.452Z,85.93
2019-05-19T03:56:33.179Z,86.26
2019-05-19T04:00:39.865Z,87.11
2019-05-19T04:04:46.644Z,85.72
2019-05-19T04:08:53.400Z,85.58
2019-05-19T04:13:00.087Z,86.82
2019-05-19T04:17:06.870Z,86.63
2019-05-19T04:21:13.581Z,87.05
2019-05-19T04:25:20.252Z,86.97
2019-05-19T04:29:26.996Z,86.24
2019-05-19T04:33:33.678Z,86.73
2019-05-19T04:37:40.469Z,86.04
2019-05-19T04:41:47.164Z,86.39
2019-05-19T04:45:53.895Z,86.01
2019-05-19T04:50:00.612Z,85.55
2019-05-19T04:54:07.448Z,84.75
2019-05-19T04:58:14.167Z,84.23
2019-05-19T05:02:20.903Z,84.33
2019-05-19T05:06:27.684Z,84.45
2019-05-19T05:10:34.444Z,85.15
2019-05-19T05:14:41.314Z,84.49
2019-05-19T05:18:50.729Z,82.69
2019-05-19T05:22:57.835Z,82.71
2019-05-19T05:27:04.571Z,82.57
2019-05-19T05:31:11.233Z,81.16
2019-05-19T05:35:18.693Z,81.13
2019-05-19T05:39:25.424Z,81.36
2019-05-19T05:43:32.215Z,81.16
2019-05-19T05:47:38.991Z,82.05
2019-05-19T05:51:45.689Z,80.04
2019-05-19T05:55:52.579Z,79.79
2019-05-19T05:59:59.443Z,80.23
2019-05-19T06:04:06.224Z,78.11
2019-05-19T06:08:13.084Z,78.73
2019-05-19T06:12:19.959Z,77.86
2019-05-19T06:16:28.685Z,77.14
2019-05-19T06:20:35.573Z,77.52
2019-05-19T06:24:42.456Z,78.08
2019-05-19T06:28:49.443Z,78.09
2019-05-19T06:32:58.452Z,77.29
2019-05-19T06:37:05.750Z,77.96
2019-05-19T06:41:13.983Z,77.62
2019-05-19T06:45:21.747Z,77.00
2019-05-19T06:49:29.397Z,78.13
2019-05-19T06:53:36.800Z,76.49
2019-05-19T06:57:43.889Z,75.73
2019-05-19T07:01:54.963Z,76.11
2019-05-19T07:06:01.738Z,75.78
2019-05-19T07:10:09.040Z,75.74
2019-05-19T07:14:15.757Z,75.92
2019-05-19T07:18:22.534Z,74.26
2019-05-19T07:22:37.562Z,74.19
2019-05-19T07:26:43.981Z,73.84
2019-05-19T07:30:50.845Z,74.16
2019-05-19T07:34:57.685Z,73.55
2019-05-19T07:39:05.714Z,73.75
2019-05-19T07:43:13.303Z,73.08
2019-05-19T07:47:20.290Z,72.34
2019-05-19T07:51:28.483Z,71.26
2019-05-19T07:55:35.412Z,70.15
2019-05-19T07:59:42.543Z,69.48
2019-05-19T08:03:49.394Z,68.14
2019-05-19T08:07:56.252Z,67.84
2019-05-19T08:12:03.805Z,66.68
2019-05-19T08:16:11.675Z,65.92
2019-05-19T08:20:20.317Z,65.94
2019-05-19T08:24:27.053Z,63.88
2019-05-19T08:28:34.471Z,64.37
2019-05-19T08:32:41.421Z,63.13
2019-05-19T08:36:48.878Z,61.40
2019-05-19T08:40:55.794Z,59.22
2019-05-19T08:45:07.658Z,58.97
2019-05-19T08:49:14.535Z,59.08
2019-05-19T08:53:29.275Z,55.97
2019-05-19T08:57:36.696Z,56.23
2019-05-19T09:01:44.084Z,53.46
2019-05-19T09:05:56.097Z,52.94
2019-05-19T09:10:02.873Z,51.28
2019-05-19T09:14:09.652Z,51.73
2019-05-19T09:18:16.431Z,48.88
2019-05-19T09:22:23.228Z,49.84
2019-05-19T09:26:29.946Z,47.71
2019-05-19T09:30:36.715Z,47.16
2019-05-19T09:34:43.405Z,47.16
2019-05-19T09:38:50.173Z,46.15
2019-05-19T09:42:56.941Z,45.79
2019-05-19T09:47:04.906Z,45.51
2019-05-19T09:51:11.760Z,45.00
2019-05-19T09:55:19.588Z,44.51
2019-05-19T09:59:26.374Z,44.35
2019-05-19T10:03:33.094Z,45.11
2019-05-19T10:07:39.790Z,46.28
2019-05-19T10:12:04.490Z,47.09
2019-05-19T10:16:11.299Z,47.94
2019-05-19T10:20:19.018Z,46.02
2019-05-19T10:24:26.787Z,49.18
2019-05-19T10:28:33.711Z,49.18
2019-05-19T10:32:40.490Z,47.96
2019-05-19T10:36:48.064Z,47.96
2019-05-19T10:40:54.915Z,49.07
2019-05-19T10:45:01.650Z,47.31
2019-05-19T10:49:08.450Z,46.45
2019-05-19T10:53:15.348Z,42.79
2019-05-19T10:57:24.865Z,42.79
2019-05-19T11:01:31.863Z,41.62
2019-05-19T11:05:40.184Z,41.62
2019-05-19T11:09:47.020Z,41.60
2019-05-19T11:13:53.822Z,41.78
2019-05-19T11:18:06.388Z,41.89
2019-05-19T11:22:12.108Z,43.18
2019-05-19T11:26:18.933Z,43.34
2019-05-19T11:30:25.681Z,41.76
2019-05-19T11:34:34.032Z,39.64
2019-05-19T11:38:40.967Z,38.36
2019-05-19T11:42:47.776Z,40.34
2019-05-19T11:46:54.549Z,37.05
2019-05-19T11:51:01.227Z,36.57
2019-05-19T11:55:08.264Z,36.10
2019-05-19T11:59:15.124Z,36.10
2019-05-19T12:03:21.876Z,36.43
2019-05-19T12:07:28.927Z,34.64
2019-05-19T12:11:35.738Z,33.06
2019-05-19T12:15:43.330Z,32.12
2019-05-19T12:19:50.406Z,33.78
2019-05-19T12:23:57.249Z,33.06
2019-05-19T12:28:08.621Z,32.52
2019-05-19T12:32:16.551Z,31.95
2019-05-19T12:36:25.226Z,32.30
2019-05-19T12:40:34.032Z,31.62
2019-05-19T12:44:41.478Z,31.56
2019-05-19T12:48:48.736Z,32.13
2019-05-19T12:52:55.570Z,32.78
2019-05-19T12:57:02.542Z,29.53
2019-05-19T13:01:09.768Z,30.18
2019-05-19T13:05:17.000Z,29.12
2019-05-19T13:09:29.011Z,28.50
2019-05-19T13:13:36.402Z,28.74
2019-05-19T13:17:43.240Z,28.79
2019-05-19T13:21:50.157Z,29.18
2019-05-19T13:25:57.169Z,27.83
2019-05-19T13:30:04.121Z,27.77
2019-05-19T13:34:13.218Z,29.18
2019-05-19T13:38:20.001Z,30.11
2019-05-19T13:42:26.822Z,28.42
2019-05-19T13:46:36.514Z,28.64
2019-05-19T13:50:44.335Z,28.38
2019-05-19T13:54:51.400Z,28.26
2019-05-19T13:58:58.184Z,27.83
2019-05-19T14:03:05.124Z,28.90
2019-05-19T14:07:12.037Z,27.58
2019-05-19T14:11:21.169Z,28.61
2019-05-19T14:15:32.567Z,27.62
2019-05-19T14:19:40.384Z,28.81
2019-05-19T14:23:47.260Z,29.20
2019-05-19T14:27:54.276Z,30.17
2019-05-19T14:32:01.546Z,30.10
2019-05-19T14:36:08.387Z,31.44
2019-05-19T14:40:18.492Z,31.68
2019-05-19T14:44:27.033Z,32.04
2019-05-19T14:48:33.842Z,32.10
2019-05-19T14:52:40.747Z,30.92
2019-05-19T14:56:47.596Z,30.79
2019-05-19T15:00:54.372Z,33.75
2019-05-19T15:05:02.679Z,36.71
2019-05-19T15:09:09.752Z,37.71
2019-05-19T15:13:16.773Z,38.20
2019-05-19T15:17:27.628Z,39.51
2019-05-19T15:21:34.430Z,36.87
2019-05-19T15:25:41.343Z,35.98
2019-05-19T15:30:11.767Z,36.96
2019-05-19T15:34:08.093Z,38.31
2019-05-19T15:38:15.053Z,37.45
2019-05-19T15:42:21.819Z,36.90
2019-05-19T15:46:28.971Z,36.22
2019-05-19T15:50:35.939Z,36.53
2019-05-19T15:54:44.284Z,36.91
2019-05-19T15:58:51.365Z,37.42
2019-05-19T16:02:58.164Z,37.61
2019-05-19T16:07:04.999Z,37.99
2019-05-19T16:11:12.092Z,37.73
2019-05-19T16:15:21.994Z,37.59
2019-05-19T16:19:28.892Z,40.81
2019-05-19T16:23:35.965Z,41.99
2019-05-19T16:27:42.886Z,43.37
2019-05-19T16:31:49.891Z,44.35
2019-05-19T16:35:57.029Z,45.21
2019-05-19T16:40:03.921Z,45.22
2019-05-19T16:44:11.781Z,44.94
2019-05-19T16:48:18.621Z,45.43
2019-05-19T16:52:26.423Z,46.18
2019-05-19T16:56:34.609Z,46.81
2019-05-19T17:00:45.527Z,47.06
2019-05-19T17:04:55.384Z,47.37
2019-05-19T17:09:02.080Z,47.93
2019-05-19T17:13:10.092Z,48.40
2019-05-19T17:17:18.699Z,48.77
2019-05-19T17:21:25.468Z,49.25
2019-05-19T17:25:34.114Z,49.94
2019-05-19T17:29:40.886Z,49.86
2019-05-19T17:33:47.745Z,49.64
2019-05-19T17:37:54.577Z,49.75
2019-05-19T17:42:01.462Z,49.54
2019-05-19T17:46:08.384Z,49.66
2019-05-19T17:50:17.406Z,49.87
2019-05-19T17:54:24.383Z,49.88
2019-05-19T17:58:33.002Z,49.72
2019-05-19T18:02:39.729Z,49.96
2019-05-19T18:06:46.489Z,50.47
2019-05-19T18:10:53.411Z,50.64
2019-05-19T18:15:03.171Z,50.95
2019-05-19T18:19:18.435Z,50.93
2019-05-19T18:23:26.433Z,51.13
2019-05-19T18:27:33.223Z,51.60
2019-05-19T18:31:40.988Z,51.73
2019-05-19T18:35:48.820Z,52.26
2019-05-19T18:39:57.310Z,52.51
2019-05-19T18:44:04.257Z,52.91
2019-05-19T18:48:11.363Z,53.17
2019-05-19T18:52:18.332Z,53.76
2019-05-19T18:56:25.608Z,54.37
2019-05-19T19:00:37.885Z,54.52
2019-05-19T19:04:44.742Z,55.08
2019-05-19T19:08:51.594Z,55.34
2019-05-19T19:12:58.637Z,55.15
2019-05-19T19:17:05.513Z,55.41
2019-05-19T19:21:12.545Z,56.34
2019-05-19T19:25:19.456Z,56.41
2019-05-19T19:29:27.202Z,56.85
2019-05-19T19:33:34.131Z,57.43
2019-05-19T19:37:41.925Z,57.10
2019-05-19T19:41:51.931Z,57.59
2019-05-19T19:45:59.236Z,57.80
2019-05-19T19:50:06.948Z,57.89
2019-05-19T19:54:14.926Z,58.29
2019-05-19T19:58:21.726Z,59.01
2019-05-19T20:02:28.491Z,59.69
2019-05-19T20:06:35.279Z,60.05
2019-05-19T20:10:42.008Z,59.73
2019-05-19T20:14:48.894Z,60.09
2019-05-19T20:18:55.732Z,60.44
2019-05-19T20:23:02.533Z,60.61
2019-05-19T20:27:09.241Z,60.37
2019-05-19T20:31:16.040Z,60.44
2019-05-19T20:35:22.909Z,60.50
2019-05-19T20:39:29.693Z,60.35
2019-05-19T20:43:37.113Z,60.01
2019-05-19T20:47:43.909Z,59.15
2019-05-19T20:51:50.678Z,59.80
2019-05-19T20:56:00.251Z,61.85
2019-05-19T21:00:08.125Z,61.78
2019-05-19T21:04:15.344Z,61.43
2019-05-19T21:08:22.039Z,61.74
2019-05-19T21:12:28.762Z,62.02
2019-05-19T21:16:35.600Z,62.00
2019-05-19T21:20:48.920Z,62.15
2019-05-19T21:24:56.159Z,62.00
2019-05-19T21:29:02.922Z,62.20
2019-05-19T21:33:09.678Z,61.96
2019-05-19T21:37:16.465Z,61.95
2019-05-19T21:41:23.248Z,61.72
2019-05-19T21:45:29.994Z,61.96
2019-05-19T21:49:42.076Z,62.16
2019-05-19T21:53:48.853Z,62.39
2019-05-19T21:57:55.600Z,62.39
2019-05-19T22:02:02.798Z,62.64
2019-05-19T22:06:09.833Z,62.64
2019-05-19T22:10:16.760Z,62.54
2019-05-19T22:14:23.456Z,62.88
2019-05-19T22:18:30.163Z,62.75
2019-05-19T22:22:36.888Z,62.61
2019-05-19T22:26:43.594Z,62.87
2019-05-19T22:30:50.372Z,62.86
2019-05-19T22:34:57.060Z,62.81
2019-05-19T22:39:04.823Z,63.35
2019-05-19T22:43:11.669Z,63.19
2019-05-19T22:47:18.378Z,63.41
2019-05-19T22:51:25.080Z,64.24
2019-05-19T22:55:31.764Z,64.91
2019-05-19T22:59:38.537Z,65.35
2019-05-19T23:03:45.305Z,64.95
2019-05-19T23:07:51.981Z,65.70
2019-05-19T23:11:58.720Z,66.04
2019-05-19T23:16:05.410Z,66.72
2019-05-19T23:20:12.263Z,66.74
2019-05-19T23:24:18.981Z,67.48
2019-05-19T23:28:25.726Z,67.57
2019-05-19T23:32:32.510Z,67.74
2019-05-19T23:36:39.347Z,68.28
2019-05-19T23:40:46.236Z,69.27
2019-05-19T23:44:53.001Z,71.42
2019-05-19T23:48:59.690Z,71.41
2019-05-19T23:53:07.579Z,71.56
2019-05-19T23:57:14.342Z,71.70
